Time;durP1;ratioP1;P1;durP2;ratioP2;P2;SDS_P1;SDS_P2;PMS_P1;PMS_P2;Temp;Humidity;BMP_temperature;BMP_pressure;BME280_temperature;BME280_humidity;BME280_pressure;Samples;Min_cycle;Max_cycle;Signal;HPM_P1;HPM_P2
2021/10/27 00:02:12;;;;;;;1.57;1.43;;;22.10;53.50;;;;;;6276914;22;20154;-78
2021/10/27 00:04:38;;;;;;;1.70;1.60;;;22.10;53.50;;;;;;6276777;22;20161;-79
2021/10/27 00:07:07;;;;;;;2.37;1.50;;;22.10;53.50;;;;;;6276696;22;20138;-79
2021/10/27 00:09:33;;;;;;;1.30;1.20;;;22.10;53.50;;;;;;6302558;22;20352;-78
2021/10/27 00:11:59;;;;;;;1.30;1.20;;;22.10;53.50;;;;;;6277168;22;20379;-78
2021/10/27 00:14:27;;;;;;;2.00;1.63;;;22.10;53.50;;;;;;6276339;22;20380;-78
2021/10/27 00:16:53;;;;;;;1.90;1.30;;;22.10;53.50;;;;;;6276651;22;20224;-78
2021/10/27 00:19:25;;;;;;;1.80;1.70;;;22.10;53.50;;;;;;6303042;22;20356;-78
2021/10/27 00:21:50;;;;;;;1.67;1.33;;;22.10;53.50;;;;;;6302729;22;20185;-78
2021/10/27 00:24:16;;;;;;;4.07;1.40;;;22.00;53.40;;;;;;6303512;22;20368;-79
2021/10/27 00:26:42;;;;;;;1.63;1.53;;;22.00;53.40;;;;;;6275896;22;20197;-78
2021/10/27 00:29:08;;;;;;;2.00;1.47;;;22.00;53.50;;;;;;6276033;22;20146;-78
2021/10/27 00:31:34;;;;;;;2.00;1.80;;;22.00;53.50;;;;;;6302681;22;20142;-78
2021/10/27 00:34:00;;;;;;;2.37;1.43;;;22.00;53.50;;;;;;6303268;22;20126;-78
2021/10/27 00:36:25;;;;;;;1.63;1.40;;;22.00;53.40;;;;;;6302525;22;20181;-78
2021/10/27 00:38:51;;;;;;;1.77;1.57;;;22.00;53.50;;;;;;6275843;22;20129;-78
2021/10/27 00:41:17;;;;;;;2.43;1.50;;;22.00;53.50;;;;;;6275856;22;20158;-78
2021/10/27 00:43:43;;;;;;;1.50;1.40;;;22.00;53.50;;;;;;6276773;22;20440;-78
2021/10/27 00:46:23;;;;;;;2.13;1.73;;;22.00;53.50;;;;;;6276164;22;20157;-78
2021/10/27 00:48:49;;;;;;;1.53;1.40;;;22.10;53.50;;;;;;6276208;22;20137;-78
2021/10/27 00:51:16;;;;;;;2.90;1.63;;;22.00;53.60;;;;;;6303007;22;20368;-78
2021/10/27 00:53:43;;;;;;;2.00;1.30;;;22.00;53.50;;;;;;6275703;22;20380;-77
2021/10/27 00:56:10;;;;;;;1.87;1.40;;;22.00;53.50;;;;;;6302281;22;20412;-78
2021/10/27 00:58:37;;;;;;;1.53;1.40;;;22.00;53.50;;;;;;6302267;22;20375;-78
2021/10/27 01:01:04;;;;;;;2.63;1.63;;;22.00;53.50;;;;;;6275262;22;20380;-78
2021/10/27 01:03:32;;;;;;;1.60;1.50;;;22.00;53.50;;;;;;6275855;22;20364;-78
2021/10/27 01:05:58;;;;;;;1.67;1.40;;;22.00;53.50;;;;;;6276068;22;20456;-78
2021/10/27 01:08:24;;;;;;;1.33;1.00;;;22.00;53.50;;;;;;6275716;22;20377;-78
2021/10/27 01:10:50;;;;;;;1.77;1.63;;;22.00;54.00;;;;;;6276392;22;20516;-78
2021/10/27 01:13:16;;;;;;;1.60;1.50;;;22.00;53.50;;;;;;6275881;22;20392;-78
2021/10/27 01:15:42;;;;;;;1.77;1.67;;;22.00;53.50;;;;;;6275838;22;20173;-77
2021/10/27 01:18:11;;;;;;;3.10;1.53;;;22.00;53.50;;;;;;6275460;22;20376;-77
2021/10/27 01:20:39;;;;;;;1.53;1.30;;;22.00;53.50;;;;;;6302671;22;20483;-77
2021/10/27 01:23:05;;;;;;;2.33;1.60;;;22.00;53.50;;;;;;6275845;22;20368;-77
2021/10/27 01:25:31;;;;;;;2.07;1.40;;;22.00;53.50;;;;;;6301718;22;20412;-77
2021/10/27 01:28:00;;;;;;;2.80;1.50;;;22.00;53.50;;;;;;6273382;22;20181;-79
2021/10/27 01:30:26;;;;;;;1.50;1.23;;;22.00;53.50;;;;;;6298922;22;20455;-79
2021/10/27 01:33:42;;;;;;;1.60;1.50;;;22.00;53.50;;;;;;6272204;22;20391;-79
2021/10/27 01:36:08;;;;;;;1.27;1.17;;;22.00;53.50;;;;;;6298264;22;20229;-80
2021/10/27 01:39:17;;;;;;;1.30;1.20;;;22.00;53.60;;;;;;6298748;22;20366;-79
2021/10/27 01:41:43;;;;;;;1.27;1.17;;;22.00;53.50;;;;;;6272155;22;20376;-79
2021/10/27 01:44:09;;;;;;;1.47;1.30;;;22.00;53.60;;;;;;6272135;22;20376;-79
2021/10/27 01:46:36;;;;;;;1.90;1.37;;;22.00;53.60;;;;;;6271997;22;20153;-79
2021/10/27 01:49:05;;;;;;;1.60;1.50;;;22.00;53.60;;;;;;6298601;22;20377;-80
2021/10/27 01:51:31;;;;;;;2.37;1.40;;;22.00;53.60;;;;;;6272668;22;20382;-79
2021/10/27 01:53:57;;;;;;;1.30;1.13;;;22.00;53.60;;;;;;6298871;22;20444;-79
2021/10/27 01:56:24;;;;;;;1.97;1.77;;;22.00;53.60;;;;;;6272061;22;20420;-79
2021/10/27 01:58:50;;;;;;;1.70;1.30;;;22.00;53.60;;;;;;6272428;22;20152;-79
2021/10/27 02:01:16;;;;;;;1.60;1.50;;;22.00;53.60;;;;;;6299519;22;20373;-80
2021/10/27 02:03:42;;;;;;;1.37;1.23;;;22.00;53.70;;;;;;6299931;22;20747;-78
2021/10/27 02:06:08;;;;;;;1.70;1.50;;;22.00;53.60;;;;;;6272605;22;20451;-78
2021/10/27 02:08:37;;;;;;;1.50;1.10;;;22.00;53.60;;;;;;6271944;22;20154;-79
2021/10/27 02:11:03;;;;;;;1.77;1.50;;;22.00;53.60;;;;;;6298968;22;20390;-80
2021/10/27 02:13:29;;;;;;;1.77;1.30;;;22.00;53.60;;;;;;6272568;22;20408;-80
2021/10/27 02:15:55;;;;;;;1.43;1.30;;;22.00;53.60;;;;;;6299207;22;20412;-80
2021/10/27 02:18:24;;;;;;;1.63;1.40;;;22.00;53.70;;;;;;6272227;22;20150;-79
2021/10/27 02:20:50;;;;;;;3.40;1.50;;;22.00;53.70;;;;;;6273003;22;20368;-79
2021/10/27 02:23:16;;;;;;;1.50;1.40;;;22.00;53.70;;;;;;6272132;22;20372;-79
2021/10/27 02:25:42;;;;;;;1.40;1.30;;;22.00;53.60;;;;;;6298900;22;20219;-80
2021/10/27 02:28:08;;;;;;;1.40;1.23;;;22.00;53.70;;;;;;6272423;22;20385;-80
2021/10/27 02:30:34;;;;;;;1.80;1.33;;;22.00;53.80;;;;;;6273118;22;20408;-80
2021/10/27 02:33:04;;;;;;;1.50;1.30;;;22.00;53.70;;;;;;6273679;22;20145;-80
2021/10/27 02:35:30;;;;;;;1.70;1.30;;;22.00;53.70;;;;;;6272768;22;20427;-80
2021/10/27 02:37:57;;;;;;;1.50;1.10;;;22.00;53.70;;;;;;6272308;22;20387;-78
2021/10/27 02:40:23;;;;;;;1.60;1.30;;;22.00;53.70;;;;;;6299733;22;20364;-80
2021/10/27 02:42:49;;;;;;;1.60;1.37;;;22.00;53.70;;;;;;6272875;22;20426;-80
2021/10/27 02:45:15;;;;;;;1.40;1.30;;;22.00;53.60;;;;;;6272597;22;20380;-80
2021/10/27 02:47:44;;;;;;;1.70;1.43;;;22.00;53.60;;;;;;6299221;22;20428;-80
2021/10/27 02:50:12;;;;;;;1.30;1.20;;;22.00;53.70;;;;;;6299529;22;20153;-80
2021/10/27 02:52:38;;;;;;;1.47;1.20;;;22.00;53.60;;;;;;6300086;22;20380;-79
2021/10/27 02:55:05;;;;;;;1.43;1.20;;;22.00;53.70;;;;;;6299272;22;20412;-79
2021/10/27 02:57:31;;;;;;;1.80;1.50;;;22.00;53.70;;;;;;6272323;22;20383;-79
2021/10/27 02:59:57;;;;;;;2.10;1.60;;;22.00;53.70;;;;;;6272397;22;20459;-79
2021/10/27 03:02:23;;;;;;;2.07;1.37;;;22.00;53.70;;;;;;6300270;22;20456;-79
2021/10/27 03:04:49;;;;;;;3.10;1.40;;;21.90;53.60;;;;;;6299539;22;20365;-81
2021/10/27 03:07:15;;;;;;;1.80;1.50;;;22.00;53.70;;;;;;6273551;22;20153;-79
2021/10/27 03:09:40;;;;;;;1.40;1.30;;;22.00;53.70;;;;;;6301025;22;20149;-80
2021/10/27 03:12:07;;;;;;;1.40;1.30;;;22.00;53.70;;;;;;6273208;22;20384;-80
2021/10/27 03:14:32;;;;;;;1.30;1.20;;;22.00;53.70;;;;;;6273569;22;20149;-80
2021/10/27 03:17:02;;;;;;;1.60;1.50;;;22.00;53.70;;;;;;6300399;22;20395;-80
2021/10/27 03:19:27;;;;;;;2.07;1.97;;;22.00;53.60;;;;;;6273394;22;20153;-80
2021/10/27 03:21:53;;;;;;;1.60;1.40;;;22.00;53.70;;;;;;6273695;22;20388;-80
2021/10/27 03:24:19;;;;;;;1.33;1.23;;;22.00;53.70;;;;;;6272907;22;20150;-80
2021/10/27 03:26:45;;;;;;;1.57;1.43;;;22.00;53.70;;;;;;6272761;22;20495;-80
2021/10/27 03:29:11;;;;;;;1.60;1.40;;;22.00;53.70;;;;;;6273492;22;20356;-80
2021/10/27 03:31:37;;;;;;;1.23;1.10;;;22.00;53.70;;;;;;6299333;22;20176;-80
2021/10/27 03:34:03;;;;;;;1.70;1.50;;;22.00;53.70;;;;;;6273260;22;20146;-80
2021/10/27 03:36:28;;;;;;;1.60;1.50;;;22.00;53.70;;;;;;6271985;22;20182;-80
2021/10/27 03:38:54;;;;;;;1.47;1.37;;;22.00;53.60;;;;;;6247485;22;20157;-80
2021/10/27 03:41:20;;;;;;;1.57;1.30;;;22.00;53.70;;;;;;6299853;22;20165;-80
2021/10/27 03:43:46;;;;;;;1.70;1.37;;;22.00;53.70;;;;;;6273079;22;20199;-80
2021/10/27 03:46:12;;;;;;;1.53;1.17;;;21.90;53.60;;;;;;6272659;22;20154;-80
2021/10/27 03:48:39;;;;;;;1.40;1.30;;;21.90;53.60;;;;;;6272561;22;20608;-80
2021/10/27 03:51:05;;;;;;;1.97;1.53;;;22.00;53.70;;;;;;6273375;22;20384;-80
2021/10/27 03:53:33;;;;;;;1.60;1.33;;;21.90;53.60;;;;;;6299639;22;20368;-79
2021/10/27 03:55:59;;;;;;;1.80;1.20;;;21.90;53.60;;;;;;6272968;22;20430;-80
2021/10/27 03:58:30;;;;;;;1.60;1.50;;;21.90;53.60;;;;;;6299495;22;20373;-80
2021/10/27 04:00:56;;;;;;;1.67;1.33;;;21.90;53.60;;;;;;6272741;22;20167;-80
2021/10/27 04:03:23;;;;;;;1.70;1.50;;;21.90;53.60;;;;;;6299360;22;20371;-80
2021/10/27 04:05:49;;;;;;;1.50;1.30;;;21.90;53.60;;;;;;6299532;22;20173;-81
2021/10/27 04:08:15;;;;;;;1.50;1.40;;;21.90;53.60;;;;;;6272449;22;20391;-80
2021/10/27 04:10:40;;;;;;;1.63;1.53;;;21.90;53.70;;;;;;6299201;22;20376;-80
2021/10/27 04:13:06;;;;;;;1.47;1.30;;;21.90;53.70;;;;;;6272023;22;20173;-80
2021/10/27 04:15:32;;;;;;;3.33;1.20;;;21.90;53.70;;;;;;6299325;22;20169;-80
2021/10/27 04:17:59;;;;;;;1.73;1.43;;;21.90;53.70;;;;;;6299235;22;20203;-80
2021/10/27 04:20:25;;;;;;;1.40;1.20;;;21.90;53.70;;;;;;6298977;22;20174;-81
2021/10/27 04:26:13;;;;;;;1.53;1.27;;;21.90;53.70;;;;;;6299058;22;20398;-80
2021/10/27 04:28:39;;;;;;;1.50;1.40;;;21.80;53.70;;;;;;6271754;22;20388;-80
2021/10/27 04:31:05;;;;;;;1.63;1.33;;;21.80;53.70;;;;;;6272811;22;20154;-80
2021/10/27 04:33:44;;;;;;;1.60;1.20;;;21.80;53.70;;;;;;6271869;22;20650;-80
2021/10/27 04:36:17;;;;;;;1.43;1.20;;;21.80;53.70;;;;;;6235927;23;20425;-80
2021/10/27 04:42:05;;;;;;;1.93;1.77;;;21.80;53.70;;;;;;6233770;23;20349;-80
2021/10/27 04:47:54;;;;;;;1.80;1.40;;;21.80;53.80;;;;;;6235251;23;20437;-80
2021/10/27 04:50:20;;;;;;;2.70;1.53;;;21.80;53.90;;;;;;6209809;23;20374;-80
2021/10/27 04:52:46;;;;;;;1.70;1.40;;;21.80;53.80;;;;;;6234906;23;20868;-80
2021/10/27 04:55:12;;;;;;;2.20;1.60;;;21.80;53.80;;;;;;6235063;23;20417;-80
2021/10/27 04:57:38;;;;;;;2.40;1.50;;;21.80;53.80;;;;;;6209922;23;20478;-80
2021/10/27 05:00:04;;;;;;;1.67;1.57;;;21.80;53.80;;;;;;6223308;22;20369;-81
2021/10/27 05:02:30;;;;;;;2.00;1.83;;;21.90;53.80;;;;;;6271237;22;20150;-80
2021/10/27 05:04:56;;;;;;;1.90;1.50;;;21.80;53.80;;;;;;6270560;22;20441;-81
2021/10/27 05:07:24;;;;;;;1.50;1.40;;;21.80;53.70;;;;;;6271311;22;20467;-80
2021/10/27 05:09:53;;;;;;;2.73;1.90;;;21.90;53.80;;;;;;6269998;22;20441;-79
2021/10/27 05:12:19;;;;;;;2.17;1.93;;;21.90;53.80;;;;;;6269607;22;20380;-80
2021/10/27 05:14:45;;;;;;;2.70;1.57;;;21.90;53.70;;;;;;6270626;22;20442;-81
2021/10/27 05:17:15;;;;;;;2.37;1.93;;;21.90;53.70;;;;;;6269277;22;20157;-80
2021/10/27 05:19:44;;;;;;;2.30;1.80;;;21.90;53.70;;;;;;6270156;22;20373;-81
2021/10/27 05:22:20;;;;;;;1.87;1.70;;;21.90;53.60;;;;;;6270260;22;20429;-80
2021/10/27 05:24:47;;;;;;;2.10;1.90;;;21.90;53.60;;;;;;6268895;22;20372;-80
2021/10/27 05:27:14;;;;;;;2.33;2.00;;;21.90;53.60;;;;;;6269782;22;20400;-80
2021/10/27 05:29:40;;;;;;;3.17;1.80;;;22.00;53.60;;;;;;6296952;22;20400;-81
2021/10/27 05:32:09;;;;;;;2.60;1.60;;;22.00;53.60;;;;;;6269436;22;20380;-80
2021/10/27 05:34:36;;;;;;;2.00;1.80;;;22.00;53.60;;;;;;6269497;22;20422;-80
2021/10/27 05:37:05;;;;;;;3.80;1.70;;;22.00;53.60;;;;;;6270096;22;20788;-80
2021/10/27 05:39:33;;;;;;;1.97;1.60;;;22.00;53.60;;;;;;6244622;22;20412;-81
2021/10/27 05:42:01;;;;;;;1.97;1.77;;;22.00;53.60;;;;;;6270085;22;20404;-80
2021/10/27 05:44:30;;;;;;;2.00;1.70;;;22.00;53.50;;;;;;6269731;22;20404;-80
2021/10/27 05:46:56;;;;;;;1.93;1.57;;;22.00;53.50;;;;;;6270089;22;20372;-81
2021/10/27 05:49:29;;;;;;;2.30;1.83;;;22.00;53.50;;;;;;6270185;22;20385;-80
2021/10/27 05:52:03;;;;;;;1.97;1.80;;;22.00;53.50;;;;;;6269792;22;20386;-80
2021/10/27 05:57:27;;;;;;;3.90;1.73;;;22.00;53.50;;;;;;6296541;22;20380;-80
2021/10/27 05:59:55;;;;;;;1.80;1.63;;;22.00;53.50;;;;;;6269488;22;20368;-81
2021/10/27 06:02:23;;;;;;;1.90;1.47;;;22.00;53.50;;;;;;6244979;22;20414;-80
2021/10/27 06:04:49;;;;;;;1.60;1.50;;;22.00;53.50;;;;;;6266774;22;20380;-81
2021/10/27 06:07:15;;;;;;;1.73;1.50;;;22.00;53.50;;;;;;6266245;22;20389;-80
2021/10/27 06:09:40;;;;;;;1.90;1.70;;;22.10;54.10;;;;;;6266473;22;20451;-78
2021/10/27 06:12:12;;;;;;;1.33;1.23;;;22.10;53.50;;;;;;6266367;22;20180;-80
2021/10/27 06:14:38;;;;;;;1.60;1.40;;;22.10;53.50;;;;;;6292968;22;20380;-80
2021/10/27 06:27:13;;;;;;;3.50;1.27;;;22.10;53.40;;;;;;6295125;22;20777;-79
2021/10/27 06:29:46;;;;;;;2.13;1.50;;;22.10;53.50;;;;;;6269030;22;20444;-80
2021/10/27 06:34:58;;;;;;;1.50;1.40;;;22.10;53.40;;;;;;6271844;22;20903;-80
2021/10/27 06:48:45;;;;;;;1.53;1.37;;;22.20;53.50;;;;;;6298352;22;20952;-80
2021/10/27 06:51:11;;;;;;;2.40;1.77;;;22.20;53.50;;;;;;6271179;22;20380;-80
2021/10/27 06:57:00;;;;;;;1.80;1.37;;;22.30;53.50;;;;;;6298293;22;20759;-80
2021/10/27 06:59:34;;;;;;;2.27;2.00;;;22.20;53.50;;;;;;6272051;22;20372;-80
2021/10/27 07:22:44;;;;;;;2.80;1.70;;;22.30;53.60;;;;;;6179825;23;20341;-80
2021/10/27 07:25:17;;;;;;;1.43;1.20;;;22.30;53.70;;;;;;6153563;23;20372;-80
2021/10/27 07:27:52;;;;;;;1.77;1.67;;;22.30;53.60;;;;;;6154940;23;20378;-81
2021/10/27 07:30:26;;;;;;;2.73;1.57;;;22.30;53.60;;;;;;6154063;23;20376;-81
2021/10/27 07:32:55;;;;;;;1.40;1.27;;;22.30;53.60;;;;;;6153877;23;20383;-80
2021/10/27 07:41:06;;;;;;;2.43;1.47;;;22.40;53.60;;;;;;6178622;23;20829;-80
2021/10/27 07:43:45;;;;;;;1.63;1.10;;;22.40;53.60;;;;;;6176775;23;20387;-80
2021/10/27 07:46:14;;;;;;;2.20;1.43;;;22.40;53.70;;;;;;6178977;23;20379;-80
2021/10/27 07:48:46;;;;;;;1.97;1.77;;;22.40;53.70;;;;;;6178553;23;20370;-80
2021/10/27 07:51:19;;;;;;;2.70;1.63;;;22.40;53.60;;;;;;6131208;23;20412;-80
2021/10/27 07:53:54;;;;;;;1.77;1.43;;;22.40;53.60;;;;;;6157973;23;20376;-80
2021/10/27 07:56:30;;;;;;;1.90;1.70;;;22.40;53.60;;;;;;6269877;22;20419;-80
2021/10/27 07:59:04;;;;;;;3.23;1.87;;;22.40;53.60;;;;;;6270972;22;20375;-80
2021/10/27 08:01:33;;;;;;;3.00;1.77;;;22.40;53.60;;;;;;6275040;22;20376;-81
2021/10/27 08:04:23;;;;;;;2.23;1.50;;;22.40;53.60;;;;;;6250470;22;20385;-80
2021/10/27 08:07:04;;;;;;;3.27;1.77;;;22.40;53.60;;;;;;6274334;22;20467;-80
2021/10/27 08:09:35;;;;;;;2.40;1.67;;;22.40;53.60;;;;;;6251076;22;20415;-80
2021/10/27 08:12:04;;;;;;;2.70;1.80;;;22.40;53.60;;;;;;6302740;22;20356;-80
2021/10/27 08:15:18;;;;;;;;;;;;;;;;;;;;;
2021/10/27 08:21:12;;;;;;;4.70;2.40;;;22.50;53.70;;;;;;6301659;22;20429;-80
2021/10/27 08:23:46;;;;;;;2.30;1.80;;;22.40;53.70;;;;;;6275656;22;20380;-80
2021/10/27 08:32:41;;;;;;;3.60;2.30;;;22.40;53.70;;;;;;6302000;22;20344;-80
2021/10/27 08:35:11;;;;;;;4.63;2.10;;;22.40;53.70;;;;;;6301736;22;20428;-80
2021/10/27 08:37:42;;;;;;;3.43;2.10;;;22.40;53.70;;;;;;6252486;22;20463;-80
2021/10/27 08:40:10;;;;;;;3.63;2.13;;;22.40;53.70;;;;;;6301685;22;20349;-80
2021/10/27 08:42:36;;;;;;;3.80;2.10;;;22.50;53.70;;;;;;6276348;22;20367;-80
2021/10/27 08:45:30;;;;;;;7.43;2.50;;;22.50;53.70;;;;;;6274953;22;20392;-80
2021/10/27 08:48:02;;;;;;;4.23;2.70;;;22.50;53.80;;;;;;6295944;22;20471;-80
2021/10/27 08:50:36;;;;;;;5.83;2.07;;;22.50;53.80;;;;;;6286694;22;20394;-79
2021/10/27 08:53:03;;;;;;;3.10;2.07;;;22.50;53.80;;;;;;6273595;22;20383;-79
2021/10/27 08:55:36;;;;;;;6.13;2.10;;;22.50;53.80;;;;;;6273818;22;20431;-79
2021/10/27 08:58:05;;;;;;;6.30;1.90;;;22.50;53.80;;;;;;6250497;22;20472;-79
2021/10/27 09:00:45;;;;;;;4.03;2.63;;;22.60;53.80;;;;;;6273107;22;20372;-79
2021/10/27 09:35:44;;;;;;;2.57;2.10;;;22.60;53.80;;;;;;6299980;22;20415;-79
2021/10/27 09:38:40;;;;;;;4.87;2.33;;;22.60;53.80;;;;;;6273489;22;20368;-81
2021/10/27 09:41:56;;;;;;;2.70;2.27;;;22.60;53.80;;;;;;6277753;22;20387;-81
2021/10/27 10:04:42;;;;;;;2.20;1.60;;;22.70;53.90;;;;;;6185572;23;20420;-80
2021/10/27 10:07:21;;;;;;;2.23;1.67;;;22.70;53.80;;;;;;6182800;23;20450;-80
2021/10/27 10:09:48;;;;;;;3.33;1.90;;;22.70;53.80;;;;;;6206249;23;20375;-80
2021/10/27 10:12:23;;;;;;;2.60;1.57;;;22.70;53.80;;;;;;6206238;23;20382;-80
2021/10/27 10:14:52;;;;;;;3.03;2.07;;;22.70;53.70;;;;;;6207391;23;20386;-79
2021/10/27 10:17:21;;;;;;;2.40;1.60;;;22.60;53.70;;;;;;6158248;23;20386;-80
2021/10/27 10:19:56;;;;;;;2.83;1.70;;;22.60;53.70;;;;;;6182029;23;20371;-81
2021/10/27 10:36:49;;;;;;;2.30;1.97;;;22.50;53.70;;;;;;6182890;23;20568;-79
2021/10/27 11:11:37;;;;;;;3.93;2.10;;;22.40;53.90;;;;;;6085097;23;20367;-80
2021/10/27 11:23:09;;;;;;;3.17;2.23;;;22.40;54.00;;;;;;6005233;23;20375;-80
2021/10/27 11:26:09;;;;;;;2.37;1.90;;;22.30;54.00;;;;;;6005990;24;20366;-79
2021/10/27 11:37:37;;;;;;;3.67;2.47;;;22.30;54.10;;;;;;6006345;24;20492;-79
2021/10/27 11:40:24;;;;;;;4.57;2.20;;;22.30;54.10;;;;;;6040567;23;20359;-78
2021/10/27 11:43:02;;;;;;;2.83;2.00;;;22.30;54.10;;;;;;6042730;23;20738;-80
2021/10/27 11:45:39;;;;;;;3.43;2.50;;;22.30;54.20;;;;;;6017194;23;20394;-79
2021/10/27 11:50:59;;;;;;;2.63;2.23;;;22.30;54.10;;;;;;6042543;23;20371;-79
2021/10/27 11:53:31;;;;;;;6.57;2.53;;;22.30;54.10;;;;;;6111312;23;20836;-79
2021/10/27 11:56:21;;;;;;;3.93;2.07;;;22.30;54.10;;;;;;6217669;22;20420;-80
2021/10/27 11:58:54;;;;;;;4.97;2.90;;;22.40;54.10;;;;;;6275387;22;20384;-80
2021/10/27 12:01:25;;;;;;;3.67;2.00;;;22.30;54.00;;;;;;6275352;22;20376;-78
2021/10/27 12:03:51;;;;;;;3.73;2.90;;;22.30;54.00;;;;;;6250746;22;20377;-80
2021/10/27 12:06:30;;;;;;;4.27;2.17;;;22.30;54.00;;;;;;6275853;22;20395;-80
2021/10/27 12:09:28;;;;;;;5.17;2.70;;;22.40;54.00;;;;;;6275243;22;20380;-79
2021/10/27 12:18:05;;;;;;;4.00;2.40;;;22.40;54.00;;;;;;6303067;22;20391;-78
2021/10/27 12:20:55;;;;;;;2.73;1.90;;;22.30;53.90;;;;;;6277879;22;20364;-78
2021/10/27 12:23:26;;;;;;;4.73;2.50;;;22.40;54.00;;;;;;6304101;22;20697;-79
2021/10/27 12:26:05;;;;;;;2.90;2.27;;;22.30;53.90;;;;;;6277652;22;20391;-79
2021/10/27 12:28:34;;;;;;;2.33;1.80;;;22.30;53.90;;;;;;6278020;22;20373;-78
2021/10/27 12:31:19;;;;;;;3.67;2.60;;;22.40;54.00;;;;;;6278001;22;20377;-78
2021/10/27 12:33:46;;;;;;;4.60;2.50;;;22.40;54.00;;;;;;6304678;22;20361;-79
2021/10/27 12:36:29;;;;;;;3.50;2.50;;;22.30;54.00;;;;;;6277784;22;20408;-77
2021/10/27 12:39:19;;;;;;;4.30;2.60;;;22.30;54.00;;;;;;6302940;22;20413;-79
2021/10/27 12:42:05;;;;;;;4.77;2.73;;;22.30;54.00;;;;;;6274378;22;20360;-79
2021/10/27 12:44:33;;;;;;;3.87;2.10;;;22.30;54.10;;;;;;6274993;22;20388;-81
2021/10/27 12:47:14;;;;;;;3.10;2.40;;;22.30;54.10;;;;;;6275638;22;20411;-78
2021/10/27 12:49:46;;;;;;;3.70;2.63;;;22.30;54.10;;;;;;6276032;22;20387;-79
2021/10/27 12:52:21;;;;;;;2.40;2.03;;;22.30;54.10;;;;;;6274832;22;20380;-78
2021/10/27 12:55:13;;;;;;;4.10;2.27;;;22.30;54.10;;;;;;6301174;22;20352;-78
2021/10/27 12:58:10;;;;;;;4.50;2.40;;;22.30;54.10;;;;;;6275127;22;20368;-78
2021/10/27 13:04:45;;;;;;;3.17;2.03;;;22.40;54.10;;;;;;6179398;23;20480;-77
2021/10/27 13:13:49;;;;;;;4.90;1.83;;;22.40;54.10;;;;;;6145992;23;20400;-77
2021/10/27 13:29:36;;;;;;;4.53;2.47;;;22.50;54.20;;;;;;6061981;23;20478;-77
2021/10/27 13:38:16;;;;;;;4.40;2.40;;;22.50;54.10;;;;;;6041624;23;20403;-77
2021/10/27 13:45:17;;;;;;;3.00;2.10;;;22.60;54.20;;;;;;6091243;23;20464;-77
2021/10/27 13:48:04;;;;;;;3.17;2.20;;;22.60;54.20;;;;;;6090949;23;20498;-77
2021/10/27 13:58:46;;;;;;;4.37;2.10;;;22.50;54.10;;;;;;6087186;23;20477;-78
2021/10/27 14:07:03;;;;;;;2.87;2.00;;;22.60;54.60;;;;;;6149413;23;20372;-76
2021/10/27 14:39:53;;;;;;;4.10;2.10;;;22.60;54.10;;;;;;6113024;23;20360;-77
2021/10/27 15:21:21;;;;;;;4.53;2.07;;;22.70;54.20;;;;;;6281335;22;20351;-77
2021/10/27 15:24:10;;;;;;;2.50;1.90;;;22.70;54.20;;;;;;6303348;22;20353;-78
2021/10/27 15:34:44;;;;;;;4.17;1.90;;;22.70;54.20;;;;;;6304141;22;20397;-77
2021/10/27 15:42:53;;;;;;;2.83;1.80;;;22.70;54.10;;;;;;6304129;22;20363;-77
2021/10/27 15:51:13;;;;;;;1.70;1.50;;;22.70;54.20;;;;;;6279654;22;20377;-77
2021/10/27 15:56:50;;;;;;;2.00;1.80;;;22.70;54.20;;;;;;6180090;23;20435;-78
2021/10/27 15:59:18;;;;;;;2.87;1.87;;;22.70;54.20;;;;;;6156585;23;20414;-78
2021/10/27 16:01:45;;;;;;;4.20;2.20;;;22.70;54.70;;;;;;6131211;23;20391;-78
2021/10/27 16:04:12;;;;;;;2.13;1.70;;;22.70;54.10;;;;;;6181201;23;20372;-78
2021/10/27 16:09:38;;;;;;;2.23;1.70;;;22.70;54.10;;;;;;6159522;23;20363;-76
2021/10/27 16:18:19;;;;;;;2.00;1.60;;;22.70;54.20;;;;;;6151092;23;20421;-78
2021/10/27 16:20:51;;;;;;;2.10;1.40;;;22.70;54.10;;;;;;6110229;23;20374;-78
2021/10/27 16:23:31;;;;;;;2.07;1.60;;;22.70;54.10;;;;;;6124897;23;20381;-77
2021/10/27 16:25:58;;;;;;;1.83;1.47;;;22.70;54.10;;;;;;6151539;23;20391;-77
2021/10/27 16:28:26;;;;;;;2.30;1.70;;;22.70;54.10;;;;;;6126480;23;20392;-78
2021/10/27 16:30:55;;;;;;;2.37;1.73;;;22.70;54.10;;;;;;6150865;23;20384;-77
2021/10/27 16:33:23;;;;;;;2.87;1.60;;;22.70;54.10;;;;;;6153458;23;20415;-78
2021/10/27 16:35:58;;;;;;;2.20;1.67;;;22.70;54.10;;;;;;6186092;23;20414;-77
2021/10/27 16:38:26;;;;;;;1.93;1.53;;;22.70;54.10;;;;;;6185883;23;20383;-77
2021/10/27 16:40:59;;;;;;;2.60;1.80;;;22.70;54.10;;;;;;6211070;23;20390;-78
2021/10/27 16:43:44;;;;;;;2.83;1.70;;;22.70;54.10;;;;;;6206372;23;20399;-78
2021/10/27 16:46:28;;;;;;;3.03;1.40;;;22.70;54.10;;;;;;6211994;23;20363;-78
2021/10/27 16:52:17;;;;;;;1.97;1.70;;;22.70;54.10;;;;;;6304616;22;20405;-78
2021/10/27 16:54:43;;;;;;;2.90;1.60;;;22.60;54.10;;;;;;6277412;22;20364;-78
2021/10/27 16:57:09;;;;;;;2.20;1.60;;;22.60;54.10;;;;;;6278128;22;20368;-78
2021/10/27 16:59:39;;;;;;;4.20;1.57;;;22.60;54.10;;;;;;6277109;22;20381;-78
2021/10/27 17:02:04;;;;;;;4.60;1.60;;;22.70;54.10;;;;;;6303717;22;20364;-77
2021/10/27 17:07:54;;;;;;;2.93;1.70;;;22.70;54.10;;;;;;6303902;22;20413;-77
2021/10/27 17:10:21;;;;;;;2.17;1.80;;;22.60;54.10;;;;;;6303558;22;20373;-77
2021/10/27 17:12:47;;;;;;;5.17;1.83;;;22.60;54.10;;;;;;6303656;22;20344;-77
2021/10/27 17:15:19;;;;;;;3.03;1.60;;;22.60;54.20;;;;;;6276675;22;20428;-77
2021/10/27 17:17:45;;;;;;;3.13;2.00;;;22.50;54.10;;;;;;6278470;22;20373;-78
2021/10/27 17:20:14;;;;;;;4.40;1.30;;;22.50;54.10;;;;;;6276093;22;20448;-78
2021/10/27 17:22:43;;;;;;;2.80;1.90;;;22.50;54.10;;;;;;6277148;22;20433;-79
2021/10/27 17:25:15;;;;;;;2.13;1.63;;;22.50;54.20;;;;;;6277004;22;20487;-78
2021/10/27 17:27:42;;;;;;;1.93;1.50;;;22.50;54.20;;;;;;6303018;22;20371;-77
2021/10/27 17:30:18;;;;;;;4.07;2.13;;;22.50;54.20;;;;;;6303078;22;20356;-78
2021/10/27 17:32:49;;;;;;;2.13;1.47;;;22.50;54.30;;;;;;6303025;22;20389;-78
2021/10/27 17:35:25;;;;;;;2.20;2.00;;;22.40;54.20;;;;;;6252302;22;20420;-79
2021/10/27 17:37:55;;;;;;;2.33;1.37;;;22.40;54.20;;;;;;6276160;22;20373;-78
2021/10/27 17:40:45;;;;;;;1.87;1.53;;;22.40;54.20;;;;;;6303255;22;20365;-78
2021/10/27 17:43:23;;;;;;;2.17;1.73;;;22.40;54.30;;;;;;6303233;22;20357;-78
2021/10/27 17:45:52;;;;;;;1.90;1.63;;;22.40;54.30;;;;;;6267567;22;20380;-78
2021/10/27 17:48:28;;;;;;;2.30;1.40;;;22.40;54.30;;;;;;6302805;22;20401;-78
2021/10/27 17:51:23;;;;;;;1.77;1.40;;;22.40;54.30;;;;;;6301732;22;20364;-78
2021/10/27 17:59:54;;;;;;;3.10;1.87;;;22.40;54.40;;;;;;6303338;22;20443;-78
2021/10/27 18:02:26;;;;;;;1.80;1.33;;;22.30;54.40;;;;;;6279396;22;20349;-79
2021/10/27 18:05:12;;;;;;;2.83;2.00;;;22.30;54.40;;;;;;6249202;22;20372;-78
2021/10/27 18:07:41;;;;;;;2.77;1.90;;;22.30;54.50;;;;;;6276170;22;20373;-77
2021/10/27 18:10:13;;;;;;;2.47;1.67;;;22.30;54.50;;;;;;6299429;22;20394;-77
2021/10/27 18:12:39;;;;;;;3.17;1.67;;;22.30;54.50;;;;;;6272542;22;20373;-76
2021/10/27 18:15:07;;;;;;;2.03;1.50;;;22.30;54.60;;;;;;6272897;22;20411;-77
2021/10/27 18:17:38;;;;;;;2.43;1.70;;;22.30;54.60;;;;;;6272699;22;20209;-77
2021/10/27 18:25:35;;;;;;;2.67;1.50;;;22.30;54.60;;;;;;6313056;22;20352;-79
2021/10/27 18:46:36;;;;;;;2.87;1.43;;;22.20;54.80;;;;;;6242752;23;20361;-79
2021/10/27 18:49:04;;;;;;;2.30;1.30;;;22.20;54.80;;;;;;6243178;23;20410;-81
2021/10/27 18:51:55;;;;;;;3.23;1.73;;;22.20;54.80;;;;;;6240804;23;20374;-78
2021/10/27 19:15:51;;;;;;;4.97;1.80;;;22.20;54.60;;;;;;6242721;23;20510;-79
2021/10/27 19:18:28;;;;;;;2.70;1.70;;;22.20;54.70;;;;;;6218406;23;20369;-78
2021/10/27 19:21:20;;;;;;;5.43;1.63;;;22.20;54.70;;;;;;6212372;23;20366;-78
2021/10/27 19:23:59;;;;;;;4.17;2.20;;;22.20;54.60;;;;;;6167931;23;20378;-78
2021/10/27 19:27:01;;;;;;;2.47;1.77;;;22.20;54.60;;;;;;6218956;23;20347;-78
2021/10/27 20:54:00;;;;;;;3.50;1.60;;;22.20;54.70;;;;;;6211529;23;20426;-77
2021/10/27 20:56:53;;;;;;;3.80;1.87;;;22.10;54.60;;;;;;6210579;23;20441;-77
2021/10/27 20:59:43;;;;;;;3.00;1.80;;;22.10;54.60;;;;;;6211434;23;20338;-78
2021/10/27 21:03:07;;;;;;;3.40;2.17;;;22.10;54.60;;;;;;6186485;23;20447;-77
2021/10/27 21:17:13;;;;;;;3.60;1.70;;;22.20;54.60;;;;;;6252383;22;20380;-78
2021/10/27 21:19:57;;;;;;;3.83;1.90;;;22.20;54.60;;;;;;6304315;22;20342;-77
2021/10/27 21:22:40;;;;;;;3.17;1.90;;;22.20;54.60;;;;;;6299261;22;20404;-77
2021/10/27 21:25:10;;;;;;;2.60;1.53;;;22.20;54.60;;;;;;6305188;22;20349;-77
2021/10/27 21:28:01;;;;;;;3.23;1.50;;;22.20;54.60;;;;;;6305060;22;20359;-77
2021/10/27 21:33:49;;;;;;;2.63;1.63;;;22.10;54.60;;;;;;6283173;22;20352;-77
2021/10/27 21:44:56;;;;;;;2.40;1.43;;;22.10;54.70;;;;;;6261110;22;20376;-77
2021/10/27 21:47:24;;;;;;;1.93;1.57;;;22.10;54.70;;;;;;6303985;22;20357;-77
2021/10/27 21:49:52;;;;;;;3.33;1.60;;;22.10;54.70;;;;;;6304566;22;20364;-77